createdAt,value
2022-08-27T00:00:54.872Z,1002.59
2022-08-27T00:01:54.878Z,1002.57
2022-08-27T00:02:54.850Z,1002.62
2022-08-27T00:03:54.843Z,1002.57
2022-08-27T00:04:54.837Z,1002.55
2022-08-27T00:05:54.834Z,1002.53
2022-08-27T00:06:54.812Z,1002.52
2022-08-27T00:07:54.803Z,1002.5
2022-08-27T00:08:54.795Z,1002.5
2022-08-27T00:09:54.781Z,1002.53
2022-08-27T00:10:54.765Z,1002.53
2022-08-27T00:11:54.766Z,1002.53
2022-08-27T00:12:54.749Z,1002.53
2022-08-27T00:13:54.735Z,1002.5
2022-08-27T00:14:54.727Z,1002.51
2022-08-27T00:15:54.727Z,1002.53
2022-08-27T00:16:54.726Z,1002.53
2022-08-27T00:17:54.721Z,1002.51
2022-08-27T00:18:54.691Z,1002.49
2022-08-27T00:19:54.672Z,1002.51
2022-08-27T00:20:54.668Z,1002.52
2022-08-27T00:21:54.668Z,1002.49
2022-08-27T00:22:54.642Z,1002.51
2022-08-27T00:23:54.649Z,1002.49
2022-08-27T00:24:54.633Z,1002.56
2022-08-27T00:25:54.611Z,1002.57
2022-08-27T00:26:54.602Z,1002.56
2022-08-27T00:27:54.608Z,1002.59
2022-08-27T00:28:54.580Z,1002.56
2022-08-27T00:29:54.576Z,1002.5
2022-08-27T00:30:54.564Z,1002.55
2022-08-27T00:31:54.545Z,1002.48
2022-08-27T00:32:54.537Z,1002.51
2022-08-27T00:33:54.528Z,1002.5
2022-08-27T00:34:54.518Z,1002.49
2022-08-27T00:35:54.502Z,1002.48
2022-08-27T00:36:54.501Z,1002.5
2022-08-27T00:37:54.489Z,1002.52
2022-08-27T00:38:54.472Z,1002.55
2022-08-27T00:39:54.464Z,1002.59
2022-08-27T00:40:54.458Z,1002.54
2022-08-27T00:41:54.460Z,1002.54
2022-08-27T00:42:54.437Z,1002.51
2022-08-27T00:43:54.426Z,1002.46
2022-08-27T00:44:54.415Z,1002.56
2022-08-27T00:45:54.408Z,1002.52
2022-08-27T00:46:54.394Z,1002.55
2022-08-27T00:47:54.397Z,1002.53
2022-08-27T00:48:54.376Z,1002.51
2022-08-27T00:49:54.358Z,1002.5
2022-08-27T00:50:54.350Z,1002.51
2022-08-27T00:51:54.339Z,1002.52
2022-08-27T00:52:54.327Z,1002.49
2022-08-27T00:53:54.333Z,1002.53
2022-08-27T00:54:54.306Z,1002.48
2022-08-27T00:55:54.302Z,1002.52
2022-08-27T00:56:54.284Z,1002.54
2022-08-27T00:57:54.278Z,1002.56
2022-08-27T00:58:54.264Z,1002.55
2022-08-27T00:59:54.251Z,1002.54
2022-08-27T01:00:54.255Z,1002.55
2022-08-27T01:01:54.235Z,1002.54
2022-08-27T01:02:54.227Z,1002.55
2022-08-27T01:03:54.219Z,1002.51
2022-08-27T01:04:54.212Z,1002.44
2022-08-27T01:05:54.190Z,1002.53
2022-08-27T01:06:54.188Z,1002.47
2022-08-27T01:07:54.172Z,1002.49
2022-08-27T01:08:54.163Z,1002.44
2022-08-27T01:09:54.160Z,1002.42
2022-08-27T01:10:54.150Z,1002.47
2022-08-27T01:11:54.141Z,1002.49
2022-08-27T01:12:54.134Z,1002.44
2022-08-27T01:13:54.107Z,1002.48
2022-08-27T01:14:54.100Z,1002.48
2022-08-27T01:15:54.115Z,1002.43
2022-08-27T01:16:54.084Z,1002.47
2022-08-27T01:17:54.077Z,1002.51
2022-08-27T01:18:54.058Z,1002.53
2022-08-27T01:19:54.051Z,1002.51
2022-08-27T01:20:54.039Z,1002.49
2022-08-27T01:21:54.042Z,1002.51
2022-08-27T01:22:54.021Z,1002.65
2022-08-27T01:23:54.014Z,1002.61
2022-08-27T01:24:53.996Z,1002.65
2022-08-27T01:25:54.005Z,1002.6
2022-08-27T01:26:53.972Z,1002.69
2022-08-27T01:27:53.974Z,1002.7
2022-08-27T01:28:53.965Z,1002.73
2022-08-27T01:29:53.939Z,1002.68
2022-08-27T01:30:53.935Z,1002.67
2022-08-27T01:31:53.929Z,1002.67
2022-08-27T01:32:53.906Z,1002.69
2022-08-27T01:33:53.951Z,1002.67
2022-08-27T01:34:53.888Z,1002.68
2022-08-27T01:35:53.873Z,1002.7
2022-08-27T01:36:53.869Z,1002.71
2022-08-27T01:37:53.856Z,1002.66
2022-08-27T01:38:53.855Z,1002.7
2022-08-27T01:39:53.834Z,1002.72
2022-08-27T01:40:53.817Z,1002.72
2022-08-27T01:41:53.809Z,1002.75
2022-08-27T01:42:53.809Z,1002.79
2022-08-27T01:43:53.788Z,1002.79
2022-08-27T01:44:53.784Z,1002.73
2022-08-27T01:45:53.774Z,1002.72
2022-08-27T01:46:53.761Z,1002.7
2022-08-27T01:47:54.730Z,1002.71
2022-08-27T01:48:53.736Z,1002.73
2022-08-27T01:49:53.725Z,1002.74
2022-08-27T01:50:53.733Z,1002.69
2022-08-27T01:51:53.707Z,1002.71
2022-08-27T01:52:53.689Z,1002.68
2022-08-27T01:53:53.690Z,1002.69
2022-08-27T01:54:53.675Z,1002.66
2022-08-27T01:55:53.661Z,1002.69
2022-08-27T01:56:53.657Z,1002.71
2022-08-27T01:57:53.681Z,1002.75
2022-08-27T01:58:53.665Z,1002.73
2022-08-27T01:59:53.649Z,1002.82
2022-08-27T02:00:53.605Z,1002.76
2022-08-27T02:01:53.687Z,1002.82
2022-08-27T02:02:53.590Z,1002.78
2022-08-27T02:03:53.581Z,1002.76
2022-08-27T02:04:53.572Z,1002.82
2022-08-27T02:05:53.642Z,1002.8
2022-08-27T02:06:53.546Z,1002.8
2022-08-27T02:07:53.536Z,1002.78
2022-08-27T02:08:53.536Z,1002.75
2022-08-27T02:09:53.519Z,1002.77
2022-08-27T02:10:53.501Z,1002.77
2022-08-27T02:11:53.494Z,1002.81
2022-08-27T02:12:53.502Z,1002.77
2022-08-27T02:13:53.479Z,1002.75
2022-08-27T02:14:53.464Z,1002.82
2022-08-27T02:15:53.446Z,1002.84
2022-08-27T02:16:53.455Z,1002.8
2022-08-27T02:17:53.423Z,1002.82
2022-08-27T02:18:53.423Z,1002.77
2022-08-27T02:19:53.408Z,1002.76
2022-08-27T02:20:53.400Z,1002.77
2022-08-27T02:21:53.394Z,1002.75
2022-08-27T02:22:53.381Z,1002.8
2022-08-27T02:23:53.383Z,1002.73
2022-08-27T02:24:53.377Z,1002.75
2022-08-27T02:25:53.363Z,1002.76
2022-08-27T02:26:53.339Z,1002.75
2022-08-27T02:27:53.331Z,1002.76
2022-08-27T02:28:53.318Z,1002.78
2022-08-27T02:29:53.308Z,1002.8
2022-08-27T02:30:53.294Z,1002.74
2022-08-27T02:31:53.296Z,1002.78
2022-08-27T02:32:53.265Z,1002.78
2022-08-27T02:33:53.262Z,1002.79
2022-08-27T02:34:53.273Z,1002.81
2022-08-27T02:35:53.252Z,1002.81
2022-08-27T02:36:53.236Z,1002.84
2022-08-27T02:37:53.226Z,1002.83
2022-08-27T02:38:53.205Z,1002.81
2022-08-27T02:39:53.210Z,1002.79
2022-08-27T02:40:53.180Z,1002.84
2022-08-27T02:41:53.189Z,1002.8
2022-08-27T02:42:53.172Z,1002.81
2022-08-27T02:43:53.176Z,1002.85
2022-08-27T02:44:53.140Z,1002.86
2022-08-27T02:45:53.124Z,1002.87
2022-08-27T02:46:53.112Z,1002.81
2022-08-27T02:47:53.114Z,1002.8
2022-08-27T02:48:53.095Z,1002.83
2022-08-27T02:49:53.088Z,1002.87
2022-08-27T02:50:53.097Z,1002.88
2022-08-27T02:51:53.082Z,1002.91
2022-08-27T02:52:53.061Z,1002.84
2022-08-27T02:53:53.057Z,1002.92
2022-08-27T02:54:53.043Z,1002.87
2022-08-27T02:55:53.023Z,1002.86
2022-08-27T02:56:53.014Z,1002.87
2022-08-27T02:57:53.016Z,1002.85
2022-08-27T02:58:53.010Z,1002.83
2022-08-27T02:59:53.005Z,1002.83
2022-08-27T03:00:52.981Z,1002.86
2022-08-27T03:01:52.957Z,1002.89
2022-08-27T03:02:52.948Z,1002.86
2022-08-27T03:03:52.930Z,1002.89
2022-08-27T03:04:52.933Z,1002.92
2022-08-27T03:05:52.923Z,1002.89
2022-08-27T03:06:52.901Z,1002.87
2022-08-27T03:07:52.893Z,1002.91
2022-08-27T03:08:52.890Z,1002.87
2022-08-27T03:09:52.866Z,1002.88
2022-08-27T03:10:52.859Z,1002.89
2022-08-27T03:11:52.869Z,1002.87
2022-08-27T03:12:52.835Z,1002.89
2022-08-27T03:13:52.831Z,1002.88
2022-08-27T03:14:52.821Z,1002.9
2022-08-27T03:15:52.802Z,1002.92
2022-08-27T03:16:52.792Z,1002.86
2022-08-27T03:17:52.786Z,1002.85
2022-08-27T03:18:52.772Z,1002.85
2022-08-27T03:19:52.767Z,1002.86
2022-08-27T03:20:52.780Z,1002.9
2022-08-27T03:21:52.744Z,1002.87
2022-08-27T03:22:52.738Z,1002.89
2022-08-27T03:23:52.722Z,1002.9
2022-08-27T03:24:52.713Z,1002.94
2022-08-27T03:25:52.705Z,1002.89
2022-08-27T03:26:52.698Z,1002.87
2022-08-27T03:27:52.674Z,1002.9
2022-08-27T03:28:52.669Z,1002.9
2022-08-27T03:29:52.673Z,1002.92
2022-08-27T03:30:52.644Z,1002.92
2022-08-27T03:31:52.633Z,1002.89
2022-08-27T03:32:52.621Z,1002.93
2022-08-27T03:33:52.607Z,1002.88
2022-08-27T03:34:52.607Z,1002.95
2022-08-27T03:35:52.595Z,1002.94
2022-08-27T03:36:52.577Z,1002.88
2022-08-27T03:37:52.565Z,1002.94
2022-08-27T03:38:52.558Z,1002.92
2022-08-27T03:39:52.563Z,1002.98
2022-08-27T03:40:52.540Z,1002.98
2022-08-27T03:41:52.529Z,1002.99
2022-08-27T03:42:52.511Z,1002.94
2022-08-27T03:43:52.509Z,1002.97
2022-08-27T03:44:52.489Z,1002.99
2022-08-27T03:45:52.491Z,1003
2022-08-27T03:46:52.474Z,1002.96
2022-08-27T03:47:52.468Z,1002.96
2022-08-27T03:48:52.451Z,1003.01
2022-08-27T03:49:52.459Z,1003.05
2022-08-27T03:50:52.431Z,1003.03
2022-08-27T03:51:52.415Z,1003.03
2022-08-27T03:52:52.404Z,1002.98
2022-08-27T03:53:52.399Z,1003.03
2022-08-27T03:54:52.386Z,1002.98
2022-08-27T03:55:52.373Z,1003.03
2022-08-27T03:56:52.362Z,1003.04
2022-08-27T03:57:52.355Z,1003.07
2022-08-27T03:58:52.346Z,1003.03
2022-08-27T03:59:52.344Z,1003.05
2022-08-27T04:00:52.327Z,1003.09
2022-08-27T04:01:52.328Z,1003.04
2022-08-27T04:02:52.306Z,1003.09
2022-08-27T04:03:52.294Z,1003.01
2022-08-27T04:04:52.284Z,1003.05
2022-08-27T04:05:52.273Z,1003
2022-08-27T04:06:52.266Z,1002.98
2022-08-27T04:07:52.264Z,1003
2022-08-27T04:08:52.257Z,1002.98
2022-08-27T04:09:52.235Z,1003.03
2022-08-27T04:10:52.220Z,1003.01
2022-08-27T04:11:52.210Z,1003.03
2022-08-27T04:12:52.204Z,1003.03
2022-08-27T04:13:52.178Z,1003
2022-08-27T04:14:52.178Z,1003.01
2022-08-27T04:15:52.166Z,1003.01
2022-08-27T04:16:52.151Z,1003.01
2022-08-27T04:17:52.139Z,1003.05
2022-08-27T04:18:52.139Z,1002.99
2022-08-27T04:19:59.700Z,1002.98
2022-08-27T04:20:59.726Z,1002.97
2022-08-27T04:21:52.102Z,1002.93
2022-08-27T04:22:52.087Z,1002.97
2022-08-27T04:23:59.675Z,1002.92
2022-08-27T04:24:59.677Z,1002.98
2022-08-27T04:25:52.055Z,1003.02
2022-08-27T04:26:52.057Z,1003.03
2022-08-27T04:27:52.045Z,1003.01
2022-08-27T04:28:52.023Z,1002.99
2022-08-27T04:29:52.050Z,1002.99
2022-08-27T04:30:52.006Z,1003.04
2022-08-27T04:31:52.040Z,1003.05
2022-08-27T04:32:51.980Z,1003
2022-08-27T04:33:51.969Z,1003.02
2022-08-27T04:34:51.962Z,1003.01
2022-08-27T04:35:51.971Z,1003.03
2022-08-27T04:36:51.948Z,1003.02
2022-08-27T04:37:51.924Z,1003.04
2022-08-27T04:38:51.912Z,1003.04
2022-08-27T04:39:59.483Z,1003.08
2022-08-27T04:40:51.895Z,1003.01
2022-08-27T04:41:51.889Z,1003.09
2022-08-27T04:42:51.874Z,1003.05
2022-08-27T04:43:51.862Z,1003.15
2022-08-27T04:44:51.863Z,1003.08
2022-08-27T04:45:51.852Z,1003.06
2022-08-27T04:46:51.834Z,1003.09
2022-08-27T04:47:51.847Z,1003.13
2022-08-27T04:48:51.815Z,1003.04
2022-08-27T04:49:51.809Z,1003.07
2022-08-27T04:50:51.790Z,1003.06
2022-08-27T04:51:51.771Z,1003.16
2022-08-27T04:52:51.764Z,1003.08
2022-08-27T04:53:51.775Z,1003.08
2022-08-27T04:54:51.742Z,1003.1
2022-08-27T04:55:51.741Z,1003.08
2022-08-27T04:56:51.734Z,1003.09
2022-08-27T04:57:51.716Z,1003.09
2022-08-27T04:58:51.713Z,1003.09
2022-08-27T04:59:51.688Z,1003.08
2022-08-27T05:00:51.683Z,1003.1
2022-08-27T05:01:51.672Z,1003.08
2022-08-27T05:02:51.654Z,1003.12
2022-08-27T05:03:51.649Z,1003.13
2022-08-27T05:04:51.647Z,1003.12
2022-08-27T05:05:51.628Z,1003.08
2022-08-27T05:06:51.612Z,1003.05
2022-08-27T05:07:51.652Z,1003.12
2022-08-27T05:08:51.597Z,1003.01
2022-08-27T05:09:51.594Z,1003.03
2022-08-27T05:10:51.593Z,1003.07
2022-08-27T05:11:51.564Z,1003.06
2022-08-27T05:12:51.555Z,1003.03
2022-08-27T05:13:51.537Z,1003.05
2022-08-27T05:14:51.537Z,1003.09
2022-08-27T05:15:51.532Z,1003.1
2022-08-27T05:16:51.510Z,1003.09
2022-08-27T05:17:51.495Z,1003.04
2022-08-27T05:18:51.491Z,1003.1
2022-08-27T05:19:51.491Z,1003.06
2022-08-27T05:20:51.473Z,1003.06
2022-08-27T05:21:51.468Z,1003.07
2022-08-27T05:22:51.445Z,1003.11
2022-08-27T05:23:51.431Z,1003.12
2022-08-27T05:24:51.422Z,1003.12
2022-08-27T05:25:51.417Z,1003.15
2022-08-27T05:26:51.411Z,1003.17
2022-08-27T05:27:51.387Z,1003.18
2022-08-27T05:28:51.377Z,1003.17
2022-08-27T05:29:51.372Z,1003.17
2022-08-27T05:30:51.353Z,1003.12
2022-08-27T05:31:51.341Z,1003.17
2022-08-27T05:32:51.348Z,1003.18
2022-08-27T05:33:51.320Z,1003.19
2022-08-27T05:34:51.319Z,1003.19
2022-08-27T05:35:51.318Z,1003.19
2022-08-27T05:36:51.289Z,1003.2
2022-08-27T05:37:51.276Z,1003.2
2022-08-27T05:38:51.277Z,1003.17
2022-08-27T05:39:51.261Z,1003.16
2022-08-27T05:40:51.259Z,1003.12
2022-08-27T05:41:51.240Z,1003.17
2022-08-27T05:42:51.228Z,1003.15
2022-08-27T05:43:51.226Z,1003.17
2022-08-27T05:44:51.216Z,1003.18
2022-08-27T05:45:51.200Z,1003.16
2022-08-27T05:46:51.195Z,1003.18
2022-08-27T05:47:51.179Z,1003.19
2022-08-27T05:48:51.165Z,1003.21
2022-08-27T05:49:51.164Z,1003.2
2022-08-27T05:50:51.159Z,1003.19
2022-08-27T05:51:51.132Z,1003.16
2022-08-27T05:52:51.147Z,1003.17
2022-08-27T05:53:51.108Z,1003.24
2022-08-27T05:54:51.099Z,1003.17
2022-08-27T05:55:51.103Z,1003.21
2022-08-27T05:56:51.079Z,1003.17
2022-08-27T05:57:51.084Z,1003.2
2022-08-27T05:58:51.074Z,1003.2
2022-08-27T05:59:51.063Z,1003.23
2022-08-27T06:00:51.046Z,1003.12
2022-08-27T06:01:51.032Z,1003.24
2022-08-27T06:02:51.015Z,1003.21
2022-08-27T06:03:51.003Z,1003.15
2022-08-27T06:04:50.997Z,1003.19
2022-08-27T06:05:50.981Z,1003.17
2022-08-27T06:06:50.977Z,1003.18
2022-08-27T06:07:50.958Z,1003.19
2022-08-27T06:08:50.948Z,1003.25
2022-08-27T06:09:50.956Z,1003.17
2022-08-27T06:10:50.922Z,1003.23
2022-08-27T06:11:50.915Z,1003.26
2022-08-27T06:12:50.910Z,1003.19
2022-08-27T06:13:50.911Z,1003.29
2022-08-27T06:14:50.885Z,1003.27
2022-08-27T06:15:50.871Z,1003.28
2022-08-27T06:16:50.870Z,1003.29
2022-08-27T06:17:50.862Z,1003.26
2022-08-27T06:18:50.846Z,1003.25
2022-08-27T06:19:50.828Z,1003.26
2022-08-27T06:20:50.821Z,1003.25
2022-08-27T06:21:50.817Z,1003.25
2022-08-27T06:22:50.796Z,1003.22
2022-08-27T06:23:50.789Z,1003.28
2022-08-27T06:24:50.774Z,1003.22
2022-08-27T06:25:50.766Z,1003.22
2022-08-27T06:26:50.757Z,1003.23
2022-08-27T06:27:50.744Z,1003.23
2022-08-27T06:28:50.733Z,1003.26
2022-08-27T06:29:50.762Z,1003.22
2022-08-27T06:30:50.714Z,1003.3
2022-08-27T06:31:50.701Z,1003.31
2022-08-27T06:32:50.712Z,1003.25
2022-08-27T06:33:50.675Z,1003.27
2022-08-27T06:34:50.667Z,1003.27
2022-08-27T06:35:50.662Z,1003.29
2022-08-27T06:36:50.649Z,1003.25
2022-08-27T06:37:50.638Z,1003.24
2022-08-27T06:38:50.629Z,1003.21
2022-08-27T06:39:50.634Z,1003.27
2022-08-27T06:40:50.604Z,1003.23
2022-08-27T06:41:50.599Z,1003.27
2022-08-27T06:42:50.579Z,1003.31
2022-08-27T06:43:50.577Z,1003.33
2022-08-27T06:44:50.573Z,1003.33
2022-08-27T06:45:50.557Z,1003.33
2022-08-27T06:46:50.551Z,1003.43
2022-08-27T06:47:50.545Z,1003.41
2022-08-27T06:48:50.526Z,1003.42
2022-08-27T06:49:50.509Z,1003.44
2022-08-27T06:50:50.510Z,1003.41
2022-08-27T06:51:50.490Z,1003.43
2022-08-27T06:52:50.482Z,1003.49
2022-08-27T06:53:50.459Z,1003.44
2022-08-27T06:54:50.472Z,1003.48
2022-08-27T06:55:50.442Z,1003.45
2022-08-27T06:56:50.484Z,1003.46
2022-08-27T06:57:50.423Z,1003.49
2022-08-27T06:58:50.420Z,1003.43
2022-08-27T06:59:50.397Z,1003.47
2022-08-27T07:00:50.385Z,1003.45
2022-08-27T07:01:50.396Z,1003.52
2022-08-27T07:02:50.367Z,1003.48
2022-08-27T07:03:50.353Z,1003.46
2022-08-27T07:04:50.352Z,1003.5
2022-08-27T07:05:50.343Z,1003.6
2022-08-27T07:06:50.322Z,1003.55
2022-08-27T07:07:50.321Z,1003.59
2022-08-27T07:08:50.301Z,1003.52
2022-08-27T07:09:50.301Z,1003.57
2022-08-27T07:10:50.280Z,1003.6
2022-08-27T07:11:50.269Z,1003.6
2022-08-27T07:12:50.270Z,1003.63
2022-08-27T07:13:50.254Z,1003.61
2022-08-27T07:14:50.245Z,1003.6
2022-08-27T07:15:50.248Z,1003.61
2022-08-27T07:16:50.208Z,1003.66
2022-08-27T07:17:50.202Z,1003.66
2022-08-27T07:18:50.191Z,1003.62
2022-08-27T07:19:50.226Z,1003.69
2022-08-27T07:20:50.172Z,1003.69
2022-08-27T07:21:50.155Z,1003.69
2022-08-27T07:22:50.156Z,1003.66
2022-08-27T07:23:50.141Z,1003.69
2022-08-27T07:24:50.127Z,1003.66
2022-08-27T07:25:50.113Z,1003.73
2022-08-27T07:26:50.136Z,1003.74
2022-08-27T07:27:50.100Z,1003.72
2022-08-27T07:28:50.084Z,1003.73
2022-08-27T07:29:50.077Z,1003.76
2022-08-27T07:30:50.066Z,1003.83
2022-08-27T07:31:50.053Z,1003.78
2022-08-27T07:32:50.057Z,1003.81
2022-08-27T07:33:50.039Z,1003.82
2022-08-27T07:34:50.020Z,1003.82
2022-08-27T07:35:50.010Z,1003.82
2022-08-27T07:36:50.002Z,1003.82
2022-08-27T07:37:49.992Z,1003.86
2022-08-27T07:38:49.993Z,1003.81
2022-08-27T07:39:49.972Z,1003.78
2022-08-27T07:40:49.957Z,1003.76
2022-08-27T07:41:49.961Z,1003.76
2022-08-27T07:42:49.938Z,1003.75
2022-08-27T07:43:49.924Z,1003.73
2022-08-27T07:44:49.928Z,1003.8
2022-08-27T07:45:49.903Z,1003.76
2022-08-27T07:46:49.898Z,1003.76
2022-08-27T07:47:49.890Z,1003.82
2022-08-27T07:48:49.881Z,1003.79
2022-08-27T07:49:49.859Z,1003.81
2022-08-27T07:50:49.855Z,1003.83
2022-08-27T07:51:49.835Z,1003.78
2022-08-27T07:52:49.835Z,1003.81
2022-08-27T07:53:49.821Z,1003.77
2022-08-27T07:54:49.805Z,1003.83
2022-08-27T07:55:49.825Z,1003.8
2022-08-27T07:56:49.790Z,1003.82
2022-08-27T07:57:49.866Z,1003.9
2022-08-27T07:58:49.764Z,1003.82
2022-08-27T07:59:49.763Z,1003.86
2022-08-27T08:00:49.742Z,1003.81
2022-08-27T08:01:49.740Z,1003.77
2022-08-27T08:02:49.869Z,1003.86
2022-08-27T08:08:03.424Z,1003.87
2022-08-27T08:09:03.430Z,1003.88
2022-08-27T08:10:03.401Z,1003.85
2022-08-27T08:11:03.388Z,1003.87
2022-08-27T08:12:03.393Z,1003.84
2022-08-27T08:13:03.374Z,1003.85
2022-08-27T08:14:03.375Z,1003.86
2022-08-27T08:15:03.578Z,1003.8
2022-08-27T08:16:03.368Z,1003.9
2022-08-27T08:17:03.333Z,1003.84
2022-08-27T08:18:03.319Z,1003.75
2022-08-27T08:19:03.309Z,1003.76
2022-08-27T08:20:03.293Z,1003.76
2022-08-27T08:21:03.437Z,1003.75
2022-08-27T08:22:03.283Z,1003.81
2022-08-27T08:23:03.273Z,1003.78
2022-08-27T08:24:03.253Z,1003.85
2022-08-27T08:25:03.255Z,1003.84
2022-08-27T08:26:03.252Z,1003.8
2022-08-27T08:27:03.247Z,1003.78
2022-08-27T08:28:03.207Z,1003.75
2022-08-27T08:29:03.245Z,1003.83
2022-08-27T08:30:04.109Z,1003.87
2022-08-27T08:31:03.191Z,1003.86
2022-08-27T08:32:03.185Z,1003.84
2022-08-27T08:33:03.170Z,1003.86
2022-08-27T08:34:03.157Z,1003.84
2022-08-27T08:35:03.154Z,1003.86
2022-08-27T08:36:03.143Z,1003.86
2022-08-27T08:37:03.120Z,1003.93
2022-08-27T08:38:03.118Z,1003.9
2022-08-27T08:39:03.115Z,1003.92
2022-08-27T08:40:03.093Z,1003.94
2022-08-27T08:41:03.085Z,1003.98
2022-08-27T08:42:03.063Z,1003.96
2022-08-27T08:43:03.071Z,1003.96
2022-08-27T08:44:03.048Z,1003.91
2022-08-27T08:45:03.067Z,1003.89
2022-08-27T08:46:03.074Z,1003.95
2022-08-27T08:47:03.027Z,1004.02
2022-08-27T08:48:03.006Z,1003.98
2022-08-27T08:49:02.994Z,1003.94
2022-08-27T08:50:03.006Z,1003.95
2022-08-27T08:51:02.995Z,1003.98
2022-08-27T08:52:02.975Z,1003.97
2022-08-27T08:53:02.960Z,1004.03
2022-08-27T08:54:02.949Z,1003.97
2022-08-27T08:55:02.940Z,1004.01
2022-08-27T08:56:02.955Z,1004.01
2022-08-27T08:57:02.914Z,1003.98
2022-08-27T08:58:02.903Z,1003.97
2022-08-27T08:59:02.906Z,1004.01
2022-08-27T09:00:02.882Z,1003.94
2022-08-27T09:01:02.892Z,1003.99
2022-08-27T09:02:02.884Z,1003.97
2022-08-27T09:03:02.854Z,1003.98
2022-08-27T09:04:02.848Z,1003.94
2022-08-27T09:05:02.832Z,1003.96
2022-08-27T09:06:02.829Z,1004.02
2022-08-27T09:07:02.827Z,1003.95
2022-08-27T09:08:02.859Z,1004
2022-08-27T09:09:02.788Z,1004
2022-08-27T09:10:02.804Z,1003.99
2022-08-27T09:11:02.779Z,1004
2022-08-27T09:12:02.759Z,1003.95
2022-08-27T09:13:02.805Z,1004.04
2022-08-27T09:14:02.735Z,1003.96
2022-08-27T09:15:02.769Z,1003.93
2022-08-27T09:16:02.738Z,1003.86
2022-08-27T09:17:02.708Z,1003.92
2022-08-27T09:18:02.705Z,1003.92
2022-08-27T09:19:02.703Z,1003.95
2022-08-27T09:20:02.699Z,1003.95
2022-08-27T09:21:02.667Z,1003.93
2022-08-27T09:22:02.669Z,1003.94
2022-08-27T09:23:02.680Z,1003.97
2022-08-27T09:24:02.640Z,1003.96
2022-08-27T09:25:02.637Z,1003.98
2022-08-27T09:26:02.632Z,1004
2022-08-27T09:27:02.609Z,1004.02
2022-08-27T09:28:02.594Z,1003.97
2022-08-27T09:29:02.595Z,1004.02
2022-08-27T09:30:02.581Z,1003.95
2022-08-27T09:31:02.577Z,1004.02
2022-08-27T09:32:02.550Z,1003.98
2022-08-27T09:33:02.544Z,1004
2022-08-27T09:34:02.536Z,1003.94
2022-08-27T09:35:02.521Z,1003.96
2022-08-27T09:36:02.520Z,1003.92
2022-08-27T09:37:02.547Z,1003.95
2022-08-27T09:38:02.491Z,1003.95
2022-08-27T09:39:02.475Z,1003.91
2022-08-27T09:40:02.480Z,1003.97
2022-08-27T09:41:02.462Z,1003.95
2022-08-27T09:42:02.447Z,1003.97
2022-08-27T09:43:02.449Z,1004
2022-08-27T09:44:02.426Z,1003.92
2022-08-27T09:45:02.418Z,1003.98
2022-08-27T09:46:02.397Z,1003.88
2022-08-27T09:47:02.409Z,1003.93
2022-08-27T09:48:02.386Z,1003.92
2022-08-27T09:49:02.369Z,1003.94
2022-08-27T09:50:02.390Z,1003.95
2022-08-27T09:51:02.356Z,1003.92
2022-08-27T09:52:02.334Z,1003.99
2022-08-27T09:53:02.325Z,1003.98
2022-08-27T09:54:02.315Z,1004.05
2022-08-27T09:55:02.303Z,1003.99
2022-08-27T09:56:02.292Z,1004.01
2022-08-27T09:57:02.281Z,1003.97
2022-08-27T09:58:02.277Z,1004.02
2022-08-27T09:59:02.271Z,1004
2022-08-27T10:00:02.271Z,1003.98
2022-08-27T10:01:02.241Z,1004.01
2022-08-27T10:02:02.244Z,1003.99
2022-08-27T10:03:02.240Z,1004.03
2022-08-27T10:04:02.206Z,1004.06
2022-08-27T10:05:02.219Z,1004.02
2022-08-27T10:06:02.208Z,1004.01
2022-08-27T10:07:02.186Z,1004
2022-08-27T10:08:02.163Z,1004.07
2022-08-27T10:09:02.156Z,1004
2022-08-27T10:10:02.165Z,1004.03
2022-08-27T10:11:02.161Z,1004.05
2022-08-27T10:12:02.117Z,1004.06
2022-08-27T10:13:02.107Z,1004.08
2022-08-27T10:14:02.106Z,1004.05
2022-08-27T10:15:02.111Z,1004.06
2022-08-27T10:16:02.091Z,1004.06
2022-08-27T10:17:02.075Z,1004.09
2022-08-27T10:18:02.140Z,1004.1
2022-08-27T10:19:02.044Z,1004.08
2022-08-27T10:20:02.036Z,1004.13
2022-08-27T10:21:02.023Z,1004.15
2022-08-27T10:22:02.074Z,1004.13
2022-08-27T10:23:02.016Z,1004.14
2022-08-27T10:24:01.993Z,1004.15
2022-08-27T10:25:02.032Z,1004.16
2022-08-27T10:26:01.985Z,1004.13
2022-08-27T10:27:01.961Z,1004.08
2022-08-27T10:28:01.957Z,1004.1
2022-08-27T10:29:01.961Z,1004.11
2022-08-27T10:30:01.961Z,1004.14
2022-08-27T10:31:01.926Z,1004.14
2022-08-27T10:32:01.931Z,1004.13
2022-08-27T10:33:01.916Z,1004.14
2022-08-27T10:34:01.900Z,1004.15
2022-08-27T10:35:01.883Z,1004.22
2022-08-27T10:36:01.868Z,1004.13
2022-08-27T10:37:01.862Z,1004.17
2022-08-27T10:38:01.955Z,1004.12
2022-08-27T10:39:01.933Z,1004.2
2022-08-27T10:40:53.754Z,1004.23
2022-08-27T10:41:53.755Z,1004.18
2022-08-27T10:42:53.719Z,1004.19
2022-08-27T10:43:53.745Z,1004.21
2022-08-27T10:44:53.694Z,1004.29
2022-08-27T10:45:53.681Z,1004.25
2022-08-27T10:46:53.684Z,1004.22
2022-08-27T10:47:53.808Z,1004.19
2022-08-27T10:48:54.643Z,1004.27
2022-08-27T10:49:53.683Z,1004.29
2022-08-27T10:50:53.626Z,1004.27
2022-08-27T10:51:53.623Z,1004.25
2022-08-27T10:52:53.640Z,1004.32
2022-08-27T10:53:53.606Z,1004.34
2022-08-27T10:54:53.582Z,1004.28
2022-08-27T10:55:53.589Z,1004.33
2022-08-27T10:56:53.612Z,1004.35
2022-08-27T10:57:53.561Z,1004.37
2022-08-27T10:58:53.570Z,1004.33
2022-08-27T10:59:53.539Z,1004.37
2022-08-27T11:00:53.544Z,1004.35
2022-08-27T11:01:53.515Z,1004.34
2022-08-27T11:02:53.508Z,1004.33
2022-08-27T11:03:53.527Z,1004.37
2022-08-27T11:04:53.485Z,1004.38
2022-08-27T11:05:53.492Z,1004.4
2022-08-27T11:06:53.459Z,1004.38
2022-08-27T11:07:53.451Z,1004.36
2022-08-27T11:08:53.436Z,1004.31
2022-08-27T11:09:53.436Z,1004.33
2022-08-27T11:10:53.422Z,1004.32
2022-08-27T11:11:53.433Z,1004.32
2022-08-27T11:12:53.399Z,1004.35
2022-08-27T11:13:53.402Z,1004.31
2022-08-27T11:14:53.408Z,1004.37
2022-08-27T11:15:53.416Z,1004.35
2022-08-27T11:16:53.388Z,1004.29
2022-08-27T11:17:53.368Z,1004.34
2022-08-27T11:18:53.365Z,1004.36
2022-08-27T11:19:53.336Z,1004.33
2022-08-27T11:20:53.369Z,1004.37
2022-08-27T11:21:53.327Z,1004.35
2022-08-27T11:22:53.293Z,1004.34
2022-08-27T11:23:53.441Z,1004.29
2022-08-27T11:24:53.276Z,1004.27
2022-08-27T11:25:53.257Z,1004.4
2022-08-27T11:26:53.286Z,1004.34
2022-08-27T11:27:53.284Z,1004.29
2022-08-27T11:28:53.243Z,1004.42
2022-08-27T11:29:53.230Z,1004.35
2022-08-27T11:30:53.230Z,1004.38
2022-08-27T11:31:53.226Z,1004.35
2022-08-27T11:32:53.199Z,1004.38
2022-08-27T11:33:53.187Z,1004.38
2022-08-27T11:34:53.184Z,1004.42
2022-08-27T11:35:53.155Z,1004.35
2022-08-27T11:36:53.156Z,1004.39
2022-08-27T11:37:53.166Z,1004.41
2022-08-27T11:38:53.138Z,1004.42
2022-08-27T11:39:53.121Z,1004.34
2022-08-27T11:40:53.154Z,1004.37
2022-08-27T11:42:06.057Z,1004.41
2022-08-27T11:42:53.099Z,1004.41
2022-08-27T11:43:53.080Z,1004.38
2022-08-27T11:44:53.062Z,1004.41
2022-08-27T11:45:53.064Z,1004.4
2022-08-27T11:46:53.052Z,1004.37
2022-08-27T11:47:53.071Z,1004.36
2022-08-27T11:48:53.020Z,1004.34
2022-08-27T11:49:53.029Z,1004.35
2022-08-27T11:50:53.020Z,1004.36
2022-08-27T11:51:53.000Z,1004.37
2022-08-27T11:52:52.999Z,1004.42
2022-08-27T11:53:52.978Z,1004.4
2022-08-27T11:55:48.107Z,1004.4
2022-08-27T11:56:48.057Z,1004.41
2022-08-27T11:57:48.055Z,1004.36
2022-08-27T11:58:48.017Z,1004.37
2022-08-27T11:59:49.014Z,1004.31
2022-08-27T12:00:48.011Z,1004.34
2022-08-27T12:01:48.043Z,1004.36
2022-08-27T12:02:47.982Z,1004.32
2022-08-27T12:03:48.141Z,1004.38
2022-08-27T12:04:47.957Z,1004.36
2022-08-27T12:05:47.944Z,1004.37
2022-08-27T12:06:47.934Z,1004.36
2022-08-27T12:07:47.960Z,1004.35
2022-08-27T12:08:47.938Z,1004.3
2022-08-27T12:09:47.933Z,1004.31
2022-08-27T12:10:47.971Z,1004.34
2022-08-27T12:11:48.920Z,1004.33
2022-08-27T12:12:47.875Z,1004.33
2022-08-27T12:13:47.877Z,1004.34
2022-08-27T12:14:47.855Z,1004.33